x

Santa Maria - 21nm Nw Of Point Arguello, Ca (46011) Wave Buoy

12:50pm - Fri 24th Mar 2017 All times are PDT. -7 hours from GMT.

  • Sig Wave height 4.9ft
  • Swell Direction
  • Peak Period 15s
  • Average Period 8s
  • Wind
    2mph, 4mph gusts
  • Sea Temp 58°f
  • Air Temp 56°f
  • Sea Pressure 1025.8mb
  • Santa Maria - 21nm Nw Of Point Arguello, Ca
  • Santa Maria - 21nm Nw Of Point Arguello, Ca

More Historic Weather Station data

Upgrade to MSW Pro to gain access to the past 30 days of data for over 8000 Wavebouys and Weather Stations around the globe.

Join Pro

Comparision Forecast

View Surf forecast
   
Fri 03/24 12:50pm 5ft 15s 8s 2 4 mph 1025.8mb 58f 56f
11:50am 4.5ft 14s 8s 7
mph
1026mb 58f 55f
10:50am 5ft 16s 8s 4 7 mph 1026mb 57f 55f
9:50am 5ft 14s 8s 7
mph
1025.2mb 57f 54f
8:50am 5ft 15s 8s 2 4 mph 1025.1mb 57f 55f
7:50am 5.5ft 9s 8s 2 4 mph 1024.6mb 56f 54f
6:50am 5ft 13s 8s 4 7 mph 1024mb 56f 54f
5:50am 5.5ft 15s 8s 7 9 mph 1024.3mb 56f 54f
4:50am 6ft 16s 8s 9 11 mph 1024mb 57f 54f
3:50am 6ft 16s 8s 9 11 mph 1024.3mb 57f 54f
2:50am 6ft 16s 8s 11 13 mph 1024.8mb 57f 54f
1:50am 6ft 10s 7s 13 16 mph 1025.1mb 57f 55f
12:50am 6.5ft 16s 7s 13 16 mph 1025mb 57f 55f
Thu 03/23 11:50pm 7ft 10s 7s 13 16 mph 1024.9mb 57f 55f
10:50pm 7ft 10s 7s 16 18 mph 1024.5mb 57f 55f
8:50pm 7.5ft 10s 6s 18 22 mph 1024.2mb 57f 55f
7:50pm 8ft 10s 7s 18 22 mph 1023.8mb 57f 55f
6:50pm 8ft 14s 7s 22 27 mph 1023.8mb 57f 55f
5:50pm 9ft 11s 7s 22 27 mph 1023.6mb 57f 55f
4:50pm 8.5ft 14s 7s 20 25 mph 1023.3mb 57f 55f
3:50pm 8ft 11s 7s 20 25 mph 1023.4mb 57f 55f
2:50pm 8ft 11s 7s 16 20 mph 1023.5mb 57f 55f
1:50pm 8ft 11s 8s 20 22 mph 1024.3mb 57f 55f
12:50pm 8ft 11s 7s 18 22 mph 1024.7mb 57f 55f
11:50am 8.5ft 10s 7s 16 20 mph 1024.9mb 57f 54f
10:50am 9.5ft 11s 8s 18 22 mph 1024.2mb 56f 54f
9:50am 9ft 11s 7s 18 20 mph 1023.6mb 56f 54f
8:50am 9.5ft 11s 7s 18 25 mph 1023mb 56f 54f
7:50am 9ft 11s 7s 18 22 mph 1022.2mb 56f 54f
6:50am 10.5ft 11s 7s 20 25 mph 1021.6mb 56f 54f
5:50am 9.5ft 7s 7s 25 29 mph 1021.3mb 56f 54f
4:50am 9ft 11s 7s 25 29 mph 1021.3mb 57f 54f
3:50am 10ft 7s 7s 25 29 mph 1021mb 57f 54f
2:50am 10.5ft 7s 7s 25 29 mph 1021.1mb 57f 54f
1:50am 10ft 7s 7s 25 31 mph 1020.9mb 57f 55f
12:50am 9.5ft 7s 6s 27 31 mph 1020.4mb 57f 55f
Wed 03/22 11:50pm 10ft 12s 7s 27 34 mph 1020.1mb 57f 55f
10:50pm 10ft 11s 7s 27 34 mph 1019.8mb 57f 55f
9:50pm 10ft 11s 7s 27 34 mph 1019.3mb 57f 55f
8:50pm 10ft 11s 7s 27 34 mph 1018.4mb 57f 55f
7:50pm 9ft 12s 7s 27 34 mph 1018.1mb 57f 55f
6:50pm 9ft 13s 7s 25 29 mph 1018.1mb 57f 56f
5:50pm 8.5ft 11s 7s 22 27 mph 1018mb 57f 56f
4:50pm 8.5ft 11s 8s 22 25 mph 1017.9mb 58f 56f
3:50pm 8ft 12s 8s 18 22 mph 1018.2mb 58f 56f
2:50pm 8ft 11s 9s 18 20 mph 1018.2mb 58f 56f
1:50pm 7ft 13s 9s 13 16 mph 1018.8mb 57f 56f
12:50pm 6.5ft 12s 8s 11 13 mph 1019.1mb 57f 56f
11:50am 5.5ft 16s 8s 13 16 mph 1019.1mb 57f 56f
10:50am 5ft 16s 7s 11 16 mph 1019mb 57f 57f
9:50am 4.5ft 15s 7s 9 13 mph 1018.5mb 57f 57f
8:50am 4.5ft 16s 8s 4 7 mph 1018.5mb 57f 57f
7:50am 4ft 16s 7s 4 7 mph 1018mb 57f 56f
6:50am 4.5ft 16s 8s 7
mph
1017.6mb 57f 56f
5:50am 4.5ft 16s 8s 9
mph
1017.4mb 57f 56f
4:50am 4.5ft 16s 8s 7
mph
1017.4mb 57f 56f
3:50am 4.5ft 16s 7s 7
mph
1017.8mb 57f 56f
2:50am 4ft 16s 7s 4
mph
1018.1mb 57f 56f
1:50am 4ft 16s 7s 4 7 mph 1018.4mb 57f 56f
12:50am 4.5ft 16s 7s 7
mph
1018.5mb 57f 56f
Tue 03/21 11:50pm 4.5ft 16s 7s 4
mph
1018.4mb 57f 56f
10:50pm 4.5ft 16s 6s 4 7 mph 1018.5mb 57f 57f
9:50pm 4.5ft 16s 6s 4
mph
1018.3mb 57f 56f
8:50pm 4.5ft 16s 6s 4 7 mph 1018mb 57f 57f
7:50pm 4.5ft 16s 6s 7 9 mph 1017.6mb 57f 57f
6:50pm 4.5ft 7s 6s 9 11 mph 1017.5mb 57f 57f
5:50pm 5ft 17s 6s 9
mph
1017.3mb 57f 57f
4:50pm 5ft 16s 6s 11 13 mph 1017mb 57f 57f
3:50pm 5ft 7s 5s 16 18 mph 1017.3mb 57f 57f
2:50pm 5ft 7s 5s 20 25 mph 1016.9mb 57f 57f
1:50pm 5.5ft 6s 5s 20 25 mph 1016.8mb 57f 57f
12:50pm 5.5ft 5s 5s 20 25 mph 1016.8mb 57f 57f
11:50am 6ft 5s 5s 22 25 mph 1016.9mb 57f 58f
10:50am 5ft 7s 5s 20 25 mph 1016.8mb 57f 57f
9:50am 5ft 5s 5s 22 27 mph 1016.4mb 57f 57f
8:50am 5ft 5s 5s 22 27 mph 1016mb 57f 57f
7:50am 5ft 5s 5s 20 25 mph 1015.7mb 57f 57f
6:50am 5ft 6s 5s 20 25 mph 1015.5mb 57f 57f
5:50am 5ft 5s 5s 18 22 mph 1015.4mb 57f 57f
4:50am 5ft 5s 5s 22 25 mph 1015.2mb 57f 56f
3:50am 5ft 5s 5s 25 27 mph 1015.3mb 57f 56f
2:50am 4.5ft 5s 5s 22 25 mph 1016.1mb 57f 56f
1:50am 5ft 5s 5s 25 29 mph 1016.1mb 57f 57f
12:50am 4.5ft 5s 5s 22 25 mph 1016.3mb 57f 58f
Mon 03/20 11:50pm 4.5ft 11s 5s 20 25 mph 1016.6mb 57f 58f
10:50pm 4.5ft 11s 5s 22 27 mph 1016.9mb 57f 58f
9:50pm 4.5ft 16s 5s 20 22 mph 1017.8mb 57f 58f